KIRS/IRS METAR and TAF weather

Enter ICAO airport designator
Station Type Date Time Source
KIRS METAR 2020/07/02 19:15 UTC NOAA

KIRS 021915Z AUTO 00000KT 10SM BKN060 31/17 A3003 RMK AO2 T03120173


Station Type Date Time Source
KIRS Decoded METAR 2020/07/02 19:15 UTC NOAA

Sturgis, Kirsch Municipal Airport, MI, United States (KIRS) 41-48-46N 085-26-21W
Jul 02, 2020 - 03:15 PM EDT / 2020.07.02 1915 UTC
Wind: Calm:0
Visibility: 10 mile(s):0
Sky conditions: mostly cloudy
Temperature: 88.2 F (31.2 C)
Dew Point: 63.1 F (17.3 C)
Relative Humidity: 43%
Pressure (altimeter): 30.03 in. Hg (1016 hPa)
ob: KIRS 021915Z AUTO 00000KT 10SM BKN060 31/17 A3003 RMK AO2 T03120173
cycle: 19

Station Type Date Time Source
KIRS TAF UTC NOAA

Error!

Example: see airport list